• Join FlightAware (Why Join?)
  • Login
  • US Flag 
04:09PM EDT


 

Airport Tracker/Info


-or-


 

Live Flight TrackerFlight Track Log ✈ N143DE ✈ 26-Jan-2014 ✈ KOPF - KRYY

Flight Track Log - Related Links

Times and Time Zones

All times are in EST time to prevent confusion due to time zone crossing. See the N143DE flight status page for this flight to view local times or setup timezone preferences in your user account.

Time Position Orientation Groundspeed Altitude Reporting Facility
EST Latitude Longitude Course Direction KTS MPH feet Rate Location/Type
10:51AM 25.9072 -80.3444 269° West 170 196 1,900  Level Miami Center
10:52AM 25.9119 -80.4069 275° West 203 234 2,700 840 Climbing Miami Center
10:53AM 25.9275 -80.4606 288° West 206 237 3,600 1,320 Climbing Miami Center
10:54AM 25.9469 -80.5189 290° West 181 208 5,300 1,500 Climbing Miami Center
10:55AM 25.9908 -80.5089 12° North 206 237 6,600 1,560 Climbing Miami Center
10:56AM 25.9989 -80.4419 82° East 194 223 8,600 1,680 Climbing Miami Center
10:57AM 26.0475 -80.4225 20° North 190 219 10,200 1,440 Climbing Miami Center
10:58AM 26.0808 -80.4236 358° North 193 222 11,100 1,260 Climbing Miami Center
10:59AM 26.1350 -80.4253 358° North 205 236 12,400 1,260 Climbing Miami Center
11:01AM 26.2431 -80.4492 349° North 199 229 15,000 1,260 Climbing Miami Center
11:02AM 26.2947 -80.4717 339° North 193 222 16,200 1,200 Climbing Miami Center
11:03AM 26.3506 -80.4919 342° North 199 229 17,400 900 Climbing Miami Center
11:04AM 26.3958 -80.5167 334° Northwest 199 229 18,000 840 Climbing Miami Center
11:05AM 26.4494 -80.5461 334° Northwest 194 223 19,100 960 Climbing Miami Center
11:06AM 26.4947 -80.5706 334° Northwest 194 223 20,000 900 Climbing Miami Center
11:07AM 26.5550 -80.5819 350° North 194 223 20,900 720 Climbing Miami Center
11:08AM 26.6047 -80.5997 342° North 199 229 21,500 660 Climbing Miami Center
11:09AM 26.6647 -80.6250 339° North 205 236 22,300 660 Climbing Miami Center
11:10AM 26.7122 -80.6403 344° North 205 236 22,900 600 Climbing Miami Center
11:11AM 26.7722 -80.6656 339° North 205 236 23,600 600 Climbing Miami Center
11:12AM 26.8217 -80.6858 340° North 210 242 24,100 480 Climbing Miami Center
11:13AM 26.8756 -80.7061 341° North 210 242 24,600 420 Climbing Miami Center
11:14AM 26.9333 -80.7267 342° North 210 242 25,000 180 Climbing Miami Center
11:15AM 26.9914 -80.7494 341° North 210 242 25,000  Level Miami Center
11:16AM 27.0575 -80.7728 343° North 227 261 25,000  Level Miami Center
11:17AM 27.1258 -80.7983 342° North 240 276 25,000  Level Miami Center
11:18AM 27.1897 -80.8239 340° North 245 282 25,000  Level Miami Center
11:19AM 27.2581 -80.8472 343° North 245 282 25,000  Level Miami Center
11:20AM 27.3344 -80.8781 340° North 245 282 25,000  Level Miami Center
11:21AM 27.4006 -80.9014 343° North 245 282 25,000  Level Miami Center
11:22AM 27.4686 -80.9272 341° North 245 282 25,000  Level Miami Center
11:23AM 27.5347 -80.9528 341° North 245 282 25,000  Level Miami Center
11:24AM 27.6008 -80.9764 342° North 245 282 25,000  Level Miami Center
11:25AM 27.6647 -81.0019 340° North 245 282 25,000  Level Miami Center
11:26AM 27.7331 -81.0256 343° North 245 282 25,000  Level Miami Center
11:27AM 27.7992 -81.0514 341° North 245 282 25,000  Level Miami Center
11:28AM 27.8589 -81.0750 341° North 245 282 25,000  Level Miami Center
11:29AM 27.9231 -81.0983 342° North 245 282 25,000  Level Miami Center
11:30AM 27.9931 -81.1269 340° North 245 282 25,000  Level Miami Center
11:31AM 28.0611 -81.1531 341° North 245 282 25,000  Level Miami Center
11:32AM 28.1253 -81.1767 342° North 245 282 25,000  Level Miami Center
11:33AM 28.1850 -81.2000 341° North 245 282 25,000  Level Miami Center
11:34AM 28.2917 -81.2400 342° North 245 282 25,000  Level Jacksonville Center
11:35AM 28.3567 -81.2650 341° North 245 282 25,000  Level Jacksonville Center
11:36AM 28.4239 -81.2922 340° North 245 282 25,000  Level Jacksonville Center
11:37AM 28.4908 -81.3100 347° North 250 288 25,000  Level Jacksonville Center
11:38AM 28.5558 -81.3350 341° North 250 288 25,000  Level Jacksonville Center
11:39AM 28.6208 -81.3600 341° North 250 288 25,100  Climbing Jacksonville Center
11:40AM 28.6878 -81.3828 343° North 250 288 25,000 -60 Descending Jacksonville Center
11:41AM 28.7528 -81.4078 341° North 250 288 25,000  Level Jacksonville Center
11:42AM 28.8178 -81.4328 341° North 250 288 25,100  Climbing Jacksonville Center
11:43AM 28.8847 -81.4556 343° North 250 288 25,100  Level Jacksonville Center
11:44AM 28.9497 -81.4783 343° North 250 288 25,100  Level Jacksonville Center
11:45AM 29.0169 -81.5011 343° North 250 288 25,100  Level Jacksonville Center
11:46AM 29.0839 -81.5264 342° North 245 282 25,100  Level Jacksonville Center
11:47AM 29.1489 -81.5517 341° North 245 282 25,100  Level Jacksonville Center
11:48AM 29.2117 -81.5722 344° North 245 282 25,100  Level Jacksonville Center
11:49AM 29.2767 -81.6022 338° Northwest 245 282 25,100  Level Jacksonville Center
11:50AM 29.3436 -81.6228 345° North 245 282 25,100  Level Jacksonville Center
11:51AM 29.4086 -81.6481 341° North 245 282 25,100  Level Jacksonville Center
11:52AM 29.4736 -81.6711 343° North 245 282 25,100  Level Jacksonville Center
11:53AM 29.5428 -81.6942 344° North 245 282 25,100  Level Jacksonville Center
11:54AM 29.6078 -81.7197 341° North 245 282 25,100  Level Jacksonville Center
11:55AM 29.6747 -81.7428 343° North 245 282 25,100  Level Jacksonville Center
11:56AM 29.7397 -81.7658 343° North 245 282 25,100  Level Jacksonville Center
11:57AM 29.8067 -81.7914 342° North 245 282 25,100  Level Jacksonville Center
11:58AM 29.8717 -81.8147 343° North 245 282 25,100  Level Jacksonville Center
11:59AM 29.9386 -81.8381 343° North 245 282 25,100  Level Jacksonville Center
12:00PM 30.0056 -81.8636 342° North 245 282 25,100  Level Jacksonville Center
12:01PM 30.0767 -81.8869 344° North 245 282 25,100  Level Jacksonville Center
12:02PM 30.1417 -81.9103 343° North 245 282 25,100  Level Jacksonville Center
12:03PM 30.2067 -81.9358 341° North 250 288 25,100  Level Jacksonville Center
12:04PM 30.2714 -81.9594 343° North 245 282 25,100  Level Jacksonville Center
12:05PM 30.3383 -81.9828 343° North 250 288 25,100  Level Jacksonville Center
12:06PM 30.4056 -82.0086 342° North 250 288 25,100  Level Jacksonville Center
12:07PM 30.4725 -82.0322 343° North 245 282 25,100  Level Jacksonville Center
12:08PM 30.5394 -82.0581 342° North 250 288 25,100  Level Jacksonville Center
12:09PM 30.6000 -82.0817 341° North 250 288 25,100  Level Jacksonville Center
12:10PM 30.6669 -82.1078 341° North 250 288 25,100  Level Jacksonville Center
12:11PM 30.7342 -82.1336 342° North 250 288 25,100  Level Jacksonville Center
12:12PM 30.7989 -82.1572 343° North 250 288 25,100  Level Jacksonville Center
12:13PM 30.8700 -82.1833 343° North 250 288 25,100  Level Jacksonville Center
12:14PM 30.9350 -82.2094 341° North 250 288 25,100  Level Jacksonville Center
12:15PM 31.0019 -82.2358 341° North 250 288 25,100  Level Jacksonville Center
12:16PM 31.0689 -82.2594 343° North 250 288 25,100  Level Jacksonville Center
12:17PM 31.1336 -82.2906 338° Northwest 250 288 25,100  Level Jacksonville Center
12:18PM 31.2006 -82.3122 345° North 250 288 25,100  Level Jacksonville Center
12:19PM 31.2697 -82.3358 344° North 250 288 25,100  Level Jacksonville Center
12:20PM 31.3364 -82.3600 343° North 250 288 25,100  Level Jacksonville Center
12:21PM 31.4117 -82.3861 344° North 255 293 25,100 -360 Level Jacksonville Center
12:22PM 31.4808 -82.4150 340° North 255 293 24,400 -660 Descending Jacksonville Center
12:23PM 31.5561 -82.4417 343° North 265 305 23,800 -720 Descending Jacksonville Center
12:24PM 31.6272 -82.4706 341° North 265 305 23,000 -780 Descending Jacksonville Center
12:25PM 31.7003 -82.4969 343° North 270 311 22,300 -540 Descending Jacksonville Center
12:26PM 31.7714 -82.5261 341° North 264 304 22,000 -180 Descending Jacksonville Center
12:27PM 31.8403 -82.5503 343° North 264 304 22,000  Level Jacksonville Center
12:28PM 31.9053 -82.5769 341° North 258 297 22,000  Level Jacksonville Center
12:29PM 31.9428 -82.5925 341° North 253 291 22,000  Level Atlanta Center
12:30PM 32.0075 -82.6158 343° North 246 283 22,000  Level Atlanta Center
12:31PM 32.0728 -82.6442 340° North 246 283 22,000  Level Atlanta Center
12:32PM 32.1397 -82.6678 343° North 246 283 22,000  Level Atlanta Center
12:33PM 32.2047 -82.6936 341° North 251 289 22,000  Level Atlanta Center
12:34PM 32.2717 -82.7197 342° North 251 289 22,000  Level Atlanta Center
12:35PM 32.3389 -82.7458 342° North 251 289 22,000  Level Atlanta Center
12:36PM 32.4039 -82.7719 341° North 251 289 22,000  Level Atlanta Center
12:37PM 32.4731 -82.7981 342° North 251 289 22,000 -600 Level Atlanta Center
12:38PM 32.5378 -82.8217 343° North 246 283 20,900 -1,200 Descending Atlanta Center
12:39PM 32.5989 -82.8678 328° Northwest 252 290 19,700 -1,200 Descending Atlanta Center
12:40PM 32.6536 -82.9211 321° Northwest 252 290 18,500 -1,140 Descending Atlanta Center
12:41PM 32.7083 -82.9772 319° Northwest 257 296 17,500 -1,080 Descending Atlanta Center
12:42PM 32.7589 -83.0311 318° Northwest 257 296 16,400 -1,080 Descending Atlanta Center
12:43PM 32.8117 -83.0797 322° Northwest 252 290 15,400 -1,020 Descending Atlanta Center
12:44PM 32.8619 -83.1314 319° Northwest 246 283 14,400 -1,200 Descending Atlanta Center
12:45PM 32.9144 -83.1828 321° Northwest 241 277 13,100 -1,320 Descending Atlanta Center
12:46PM 32.9650 -83.2342 320° Northwest 236 272 11,800 -1,260 Descending Atlanta Center
12:47PM 33.0156 -83.2883 318° Northwest 243 280 10,600 -1,140 Descending Atlanta Center
12:48PM 33.0617 -83.3350 320° Northwest 238 274 9,600 -1,020 Descending Atlanta Center
12:49PM 33.1119 -83.3917 317° Northwest 232 267 8,600 -840 Descending Atlanta Center
12:50PM 33.1625 -83.4383 322° Northwest 227 261 8,000 -300 Descending Atlanta Center
12:51PM 33.2044 -83.4828 318° Northwest 213 245 8,000  Level Atlanta Center
12:52PM 33.2483 -83.5272 320° Northwest 213 245 8,000  Level Atlanta Center
12:53PM 33.2944 -83.5717 321° Northwest 208 239 8,000  Level Atlanta Center
12:55PM 33.4000 -83.6667 323° Northwest 213 245 8,000 -60 Level Atlanta TRACON
12:56PM 33.4333 -83.7000 320° Northwest 218 251 7,900 -600 Descending Atlanta TRACON
12:57PM 33.5000 -83.7500 328° Northwest 235 270 6,800 -780 Descending Atlanta TRACON
12:58PM 33.5667 -83.7833 337° Northwest 243 280 6,200 -480 Descending Atlanta TRACON
12:59PM 33.6167 -83.8167 331° Northwest 235 270 5,900 -420 Descending Atlanta TRACON
01:00PM 33.6833 -83.8167 360° North 241 277 5,500 -660 Descending Atlanta TRACON
01:01PM 33.7500 -83.8333 348° North 248 285 4,700 -720 Descending Atlanta TRACON
01:02PM 33.8167 -83.8500 348° North 233 268 4,100 -420 Descending Atlanta TRACON
01:03PM 33.8667 -83.8833 331° Northwest 200 230 3,900 -120 Descending Atlanta TRACON
01:04PM 33.9167 -83.9167 331° Northwest 182 209 3,900  Level Atlanta TRACON
01:05PM 33.9167 -83.9667 270° West 155 178 3,900  Level Atlanta TRACON
01:06PM 33.9333 -84.0167 292° West 153 176 3,900  Level Atlanta TRACON
01:07PM 33.9333 -84.0667 270° West 155 178 3,900 -120 Level Atlanta TRACON
01:08PM 33.9333 -84.1167 270° West 156 180 3,700 -420 Descending Atlanta TRACON
01:09PM 33.9500 -84.1667 292° West 171 197 3,100 -360 Descending Atlanta TRACON
01:10PM 33.9500 -84.2333 270° West 157 181 3,000 -60 Descending Atlanta TRACON
01:11PM 33.9667 -84.2667 301° West 151 174 3,000  Level Atlanta TRACON
01:12PM 33.9667 -84.3167 270° West 148 170 3,000  Level Atlanta TRACON
01:13PM 33.9833 -84.3667 292° West 151 174 3,000  Level Atlanta TRACON
01:14PM 34.0000 -84.4167 292° West 141 162 3,000  Level Atlanta TRACON
01:15PM 34.0167 -84.4667 292° West 138 159 3,100 -240 Climbing Atlanta TRACON
01:16PM 34.0167 -84.5000 270° West 128 147 2,600 -600 Descending Atlanta TRACON
01:17PM 34.0167 -84.5333 270° West 123 142 1,900 -660 Descending Atlanta TRACON